Aeroporto :
LOGIN :

Iscrizione | Disclaimer

   EN    FR    IT 

 










Sommario :    VFR   VFR Marginale   IFR   IFR Intensivo   IFR Molto Intensivo
Visibilità : 
Base nubi : 
>= 8 km
>= 3000ft
5 / 8 km
1000 / 3000 ft
1500m / 5 km
500 / 1000 ft
800 / 1500m
200 / 500 ft
< 800m
< 200 ft
Simboli :   Temporali  Nebbia  Neve Forte  Precipitazioni Forti  Vento > 20 kt
SIGMETs :   Varie  Temporali  Ghiacco  Turbolenza  Onda orograficha  Ceneri Vulcaniche







- Altitudine del aeroporto : 288 ft
- Codice IATA : BZZ


EGVN - RAF Brize Norton

ULTIMO METAR :
  • 260750Z 19007KT 9999 FEW010 10/08 Q1008 BLU TEMPO SCT015 WHT

METARs OBSOLETI :
  • 260719Z 19008KT 9999 FEW008 BKN250 09/09 Q1008 BLU NOSIG
  • 260650Z 15003KT 9999 5000SE BR FEW004 SCT250 07/07 Q1007 BECMG 9999 NSW FEW020
  • 260634Z 10001KT 9999 4000SE BR FEW003 SCT250 06/06 Q1007 GRN BECMG 9999 NSW FEW020 BLU
  • 260615Z 07003KT 0600 FG SCT002 04/04 Q1007 RED BECMG 9999 NSW SCT030
  • 260550Z 04001KT 1200 VCFG FEW002 03/03 Q1007 AMB BECMG 3700 BR GRN

TAF AMD TAF EGVN
Valido dal 26 a 06 ore il 27 a 06 ore UTC


260615Z 2606/2706 20007KT 0600 FG SCT001
BECMG 2607/2610 9999 NSW SCT030
PROB40
TEMPO 2611/2616 4000 SHRA SCT022
BECMG 2619/2621 BKN020
TEMPO 2621/2703 19015G25KT
TEMPO 2621/2623 6000 SHRA BKN012
TEMPO 2623/2702 FEW020
BECMG 2703/2706 25015G25KT
TEMPO 2703/2706 4500 -RADZ BKN010
Nessun NOTAM noto per questo aeroporto.



MetMap, La meteo Aeronautica in un colpo d'occhio ! - Copyright ORBIFLY Dicembre 2007 - Disclaimer

ORBIFLY MET'MAP TEAM :

Programmazione e sviluppo : Alexandra Zaïnal
Concezione e sviluppo : Baudouin d'Aumeries
Co-Programmazione e sviluppo : Marc-Olivier Méhu
Supporto tecnico e logistico : Manuel Goepfert
Aiuto per la traduzione : Arnaldo La Scala

Contatto : metmap@orbifly.com




FONTI E CREDITI :

   NOAA